createdAt,value
2023-02-15T00:01:14.183Z,5.75
2023-02-15T00:04:00.539Z,6.45
2023-02-15T00:06:47.195Z,5.93
2023-02-15T00:09:33.039Z,5.78
2023-02-15T00:12:19.813Z,5.70
2023-02-15T00:15:06.366Z,6.20
2023-02-15T00:17:53.005Z,6.50
2023-02-15T00:20:39.713Z,6.70
2023-02-15T00:23:30.165Z,6.10
2023-02-15T00:26:16.092Z,5.43
2023-02-15T00:29:04.978Z,5.93
2023-02-15T00:31:50.762Z,5.60
2023-02-15T00:34:36.889Z,5.90
2023-02-15T00:37:22.892Z,4.95
2023-02-15T00:40:10.008Z,5.13
2023-02-15T00:42:56.891Z,5.40
2023-02-15T00:45:42.644Z,5.13
2023-02-15T00:48:29.808Z,5.68
2023-02-15T00:51:16.288Z,4.75
2023-02-15T00:54:02.278Z,5.22
2023-02-15T00:56:50.455Z,4.70
2023-02-15T00:59:36.621Z,5.00
2023-02-15T01:02:22.900Z,5.75
2023-02-15T01:05:09.824Z,5.13
2023-02-15T01:08:00.762Z,5.10
2023-02-15T01:10:48.743Z,5.72
2023-02-15T01:13:36.646Z,5.68
2023-02-15T01:16:23.985Z,5.82
2023-02-15T01:19:10.422Z,6.10
2023-02-15T01:21:57.280Z,5.75
2023-02-15T01:24:43.593Z,5.82
2023-02-15T01:27:31.585Z,6.07
2023-02-15T01:30:27.328Z,6.15
2023-02-15T01:33:19.240Z,5.68
2023-02-15T01:36:06.451Z,5.85
2023-02-15T01:38:52.307Z,5.40
2023-02-15T01:41:38.303Z,6.00
2023-02-15T01:44:51.085Z,5.38
2023-02-15T01:47:42.671Z,5.20
2023-02-15T01:50:37.146Z,5.25
2023-02-15T01:53:55.549Z,5.60
2023-02-15T01:56:42.190Z,5.30
2023-02-15T01:59:29.349Z,5.70
2023-02-15T02:02:17.632Z,6.03
2023-02-15T02:05:08.502Z,6.18
2023-02-15T02:07:58.075Z,5.93
2023-02-15T02:10:44.064Z,5.78
2023-02-15T02:13:29.959Z,8.25
2023-02-15T02:16:23.642Z,6.95
2023-02-15T02:22:42.763Z,5.60
2023-02-15T02:26:07.429Z,5.50
2023-02-15T02:29:16.863Z,4.95
2023-02-15T02:32:25.499Z,5.10
2023-02-15T02:35:26.729Z,5.18
2023-02-15T02:38:27.793Z,5.10
2023-02-15T02:41:26.733Z,5.38
2023-02-15T02:44:17.646Z,4.32
2023-02-15T02:47:28.141Z,4.40
2023-02-15T02:50:29.165Z,4.72
2023-02-15T02:53:15.163Z,4.70
2023-02-15T02:56:38.891Z,4.47
2023-02-15T02:59:40.512Z,4.43
2023-02-15T03:02:33.023Z,4.88
2023-02-15T03:05:25.008Z,4.55
2023-02-15T03:08:12.835Z,4.15
2023-02-15T03:11:02.426Z,5.00
2023-02-15T03:13:50.752Z,4.65
2023-02-15T03:16:39.186Z,4.75
2023-02-15T03:19:36.851Z,4.72
2023-02-15T03:22:47.228Z,5.15
2023-02-15T03:25:38.834Z,4.63
2023-02-15T03:28:31.920Z,5.28
2023-02-15T03:31:21.085Z,7.35
2023-02-15T03:34:12.514Z,7.75
2023-02-15T03:37:08.138Z,9.20
2023-02-15T03:39:57.767Z,8.23
2023-02-15T03:42:44.974Z,7.82
2023-02-15T03:45:34.988Z,7.32
2023-02-15T03:48:23.965Z,8.50
2023-02-15T03:51:34.298Z,7.45
2023-02-15T03:54:45.866Z,8.20
2023-02-15T03:57:50.016Z,6.65
2023-02-15T04:00:58.599Z,6.03
2023-02-15T04:04:00.925Z,6.38
2023-02-15T04:06:47.159Z,6.55
2023-02-15T04:09:51.552Z,6.25
2023-02-15T04:12:38.097Z,4.75
2023-02-15T04:15:43.302Z,5.30
2023-02-15T04:18:47.464Z,4.85
2023-02-15T04:21:52.038Z,4.70
2023-02-15T04:24:56.409Z,5.13
2023-02-15T04:27:51.431Z,5.13
2023-02-15T04:30:37.457Z,6.05
2023-02-15T04:33:23.377Z,5.28
2023-02-15T04:36:09.498Z,5.63
2023-02-15T04:38:55.748Z,5.97
2023-02-15T04:41:42.369Z,5.90
2023-02-15T04:44:28.430Z,6.00
2023-02-15T04:47:14.360Z,6.15
2023-02-15T04:50:00.468Z,5.85
2023-02-15T04:52:46.468Z,5.90
2023-02-15T04:55:32.457Z,5.85
2023-02-15T04:58:18.393Z,5.93
2023-02-15T05:01:04.746Z,6.20
2023-02-15T05:03:51.149Z,6.15
2023-02-15T05:06:37.372Z,6.38
2023-02-15T05:09:23.265Z,5.72
2023-02-15T05:12:09.380Z,6.10
2023-02-15T05:14:55.936Z,6.40
2023-02-15T05:17:42.197Z,6.10
2023-02-15T05:20:28.264Z,7.05
2023-02-15T05:23:14.737Z,6.57
2023-02-15T05:26:19.033Z,7.22
2023-02-15T05:29:06.236Z,7.38
2023-02-15T05:31:52.890Z,7.22
2023-02-15T05:34:38.660Z,7.20
2023-02-15T05:37:24.754Z,6.63
2023-02-15T05:40:11.619Z,7.30
2023-02-15T05:42:57.995Z,7.28
2023-02-15T05:45:49.090Z,7.32
2023-02-15T05:48:35.686Z,7.65
2023-02-15T05:51:21.665Z,8.13
2023-02-15T05:54:07.805Z,9.20
2023-02-15T05:56:53.990Z,9.93
2023-02-15T05:59:39.937Z,9.80
2023-02-15T06:02:26.434Z,9.82
2023-02-15T06:05:12.668Z,10.43
2023-02-15T06:07:59.360Z,10.90
2023-02-15T06:10:47.723Z,10.40
2023-02-15T06:13:37.222Z,10.95
2023-02-15T06:16:24.317Z,10.93
2023-02-15T06:19:10.293Z,11.35
2023-02-15T06:21:56.163Z,10.50
2023-02-15T06:24:43.717Z,10.90
2023-02-15T06:27:29.710Z,9.80
2023-02-15T06:30:16.005Z,9.68
2023-02-15T06:33:01.935Z,9.25
2023-02-15T06:35:48.336Z,10.35
2023-02-15T06:38:35.158Z,9.30
2023-02-15T06:41:21.177Z,9.77
2023-02-15T06:44:07.169Z,10.40
2023-02-15T06:46:53.161Z,11.13
2023-02-15T06:49:39.382Z,10.82
2023-02-15T06:52:25.464Z,12.00
2023-02-15T06:55:11.599Z,12.07
2023-02-15T06:57:57.782Z,11.43
2023-02-15T07:00:43.842Z,12.60
2023-02-15T07:03:30.553Z,13.38
2023-02-15T07:06:16.259Z,12.23
2023-02-15T07:09:02.341Z,10.05
2023-02-15T07:12:07.004Z,9.85
2023-02-15T07:14:53.358Z,10.25
2023-02-15T07:17:40.000Z,9.40
2023-02-15T07:20:26.545Z,8.80
2023-02-15T07:23:15.189Z,8.95
2023-02-15T07:26:02.022Z,8.98
2023-02-15T07:28:48.507Z,8.68
2023-02-15T07:31:34.542Z,9.35
2023-02-15T07:34:20.357Z,9.13
2023-02-15T07:37:06.678Z,9.25
2023-02-15T07:39:52.291Z,10.20
2023-02-15T07:42:38.507Z,11.13
2023-02-15T07:45:25.274Z,10.52
2023-02-15T07:48:11.297Z,10.10
2023-02-15T07:51:00.847Z,9.98
2023-02-15T07:53:48.774Z,10.90
2023-02-15T07:56:35.824Z,10.35
2023-02-15T07:59:22.954Z,10.07
2023-02-15T08:02:12.421Z,11.10
2023-02-15T08:04:58.509Z,11.10
2023-02-15T08:07:44.643Z,12.55
2023-02-15T08:10:49.095Z,14.50
2023-02-15T08:13:35.104Z,12.05
2023-02-15T08:16:42.746Z,9.38
2023-02-15T08:19:31.478Z,10.43
2023-02-15T08:22:17.474Z,9.80
2023-02-15T08:25:03.670Z,9.88
2023-02-15T08:27:51.817Z,10.55
2023-02-15T08:30:37.489Z,9.18
2023-02-15T08:33:23.397Z,10.07
2023-02-15T08:36:12.884Z,9.82
2023-02-15T08:39:00.622Z,11.07
2023-02-15T08:41:48.223Z,11.00
2023-02-15T08:44:34.644Z,9.93
2023-02-15T08:47:20.596Z,9.75
2023-02-15T08:50:07.341Z,8.63
2023-02-15T08:52:53.950Z,7.55
2023-02-15T08:55:41.015Z,7.40
2023-02-15T08:58:26.917Z,8.63
2023-02-15T09:01:19.069Z,8.13
2023-02-15T09:04:10.228Z,9.35
2023-02-15T09:06:56.429Z,10.23
2023-02-15T09:09:42.188Z,9.80
2023-02-15T09:12:28.073Z,9.93
2023-02-15T09:15:13.873Z,9.70
2023-02-15T09:18:06.989Z,8.43
2023-02-15T09:20:52.778Z,8.25
2023-02-15T09:23:38.940Z,8.35
2023-02-15T09:26:25.799Z,8.18
2023-02-15T09:29:12.782Z,7.70
2023-02-15T09:31:58.640Z,7.82
2023-02-15T09:34:44.482Z,8.23
2023-02-15T09:37:32.930Z,7.75
2023-02-15T09:40:19.584Z,8.70
2023-02-15T09:43:19.866Z,8.20
2023-02-15T09:46:35.142Z,8.25
2023-02-15T09:49:36.406Z,8.48
2023-02-15T09:52:47.499Z,7.30
2023-02-15T09:55:49.150Z,8.13
2023-02-15T09:58:51.593Z,7.75
2023-02-15T10:01:41.334Z,8.18
2023-02-15T10:04:56.990Z,8.15
2023-02-15T10:08:07.337Z,7.43
2023-02-15T10:11:30.517Z,5.68
2023-02-15T10:14:38.743Z,6.53
2023-02-15T10:17:35.872Z,6.85
2023-02-15T10:20:58.833Z,6.20
2023-02-15T10:23:58.472Z,6.00
2023-02-15T10:26:51.563Z,6.07
2023-02-15T10:29:39.826Z,6.30
2023-02-15T10:32:32.232Z,5.90
2023-02-15T10:35:25.910Z,6.35
2023-02-15T10:38:20.490Z,6.40
2023-02-15T10:41:15.987Z,6.45
2023-02-15T10:44:16.741Z,7.03
2023-02-15T10:47:14.397Z,5.32
2023-02-15T10:50:17.970Z,9.15
2023-02-15T10:53:24.792Z,6.82
2023-02-15T10:56:46.516Z,5.80
2023-02-15T10:59:54.522Z,4.13
2023-02-15T11:02:58.840Z,6.57
2023-02-15T11:06:08.435Z,4.50
2023-02-15T11:09:03.067Z,4.07
2023-02-15T11:11:55.158Z,8.43
2023-02-15T11:15:16.585Z,3.70
2023-02-15T11:18:31.634Z,4.28
2023-02-15T11:21:33.631Z,5.45
2023-02-15T11:24:21.303Z,5.38
2023-02-15T11:27:14.180Z,5.53
2023-02-15T11:30:10.506Z,4.72
2023-02-15T11:33:02.970Z,4.82
2023-02-15T11:36:04.994Z,4.60
2023-02-15T11:38:58.170Z,4.50
2023-02-15T11:41:52.798Z,4.47
2023-02-15T11:44:44.820Z,5.28
2023-02-15T11:47:30.609Z,4.28
2023-02-15T11:50:23.982Z,4.00
2023-02-15T11:53:25.906Z,3.75
2023-02-15T11:56:26.193Z,3.78
2023-02-15T11:59:33.971Z,3.58
2023-02-15T12:02:24.482Z,4.65
2023-02-15T12:05:21.065Z,4.80
2023-02-15T12:08:18.554Z,4.55
2023-02-15T12:11:17.074Z,4.22
2023-02-15T12:14:08.389Z,4.55
2023-02-15T12:16:57.354Z,4.63
2023-02-15T12:19:43.901Z,4.28
2023-02-15T12:22:33.764Z,4.30
2023-02-15T12:25:27.956Z,4.78
2023-02-15T12:28:33.740Z,4.57
2023-02-15T12:31:24.225Z,4.60
2023-02-15T12:34:33.745Z,5.88
2023-02-15T12:37:26.676Z,6.07
2023-02-15T12:40:32.458Z,6.35
2023-02-15T12:43:37.518Z,5.50
2023-02-15T12:46:28.022Z,5.43
2023-02-15T12:49:21.922Z,5.10
2023-02-15T12:52:26.505Z,4.93
2023-02-15T12:55:31.850Z,4.90
2023-02-15T12:58:24.675Z,5.28
2023-02-15T13:01:11.966Z,5.60
2023-02-15T13:04:15.110Z,5.80
2023-02-15T13:07:03.720Z,5.57
2023-02-15T13:09:50.780Z,6.32
2023-02-15T13:12:36.705Z,6.32
2023-02-15T13:15:42.545Z,6.95
2023-02-15T13:18:51.655Z,7.32
2023-02-15T13:21:42.124Z,7.50
2023-02-15T13:24:56.422Z,7.57
2023-02-15T13:27:45.092Z,7.32
2023-02-15T13:30:39.749Z,7.93
2023-02-15T13:33:34.580Z,8.15
2023-02-15T13:36:29.317Z,7.45
2023-02-15T13:39:40.817Z,7.57
2023-02-15T13:42:40.922Z,7.60
2023-02-15T13:45:53.460Z,7.53
2023-02-15T13:49:22.413Z,7.07
2023-02-15T13:52:08.525Z,7.93
2023-02-15T13:55:03.386Z,8.07
2023-02-15T13:57:58.991Z,8.40
2023-02-15T14:01:20.600Z,7.97
2023-02-15T14:04:18.978Z,8.80
2023-02-15T14:07:26.654Z,8.77
2023-02-15T14:10:37.275Z,9.18
2023-02-15T14:14:00.649Z,9.52
2023-02-15T14:17:07.132Z,9.30
2023-02-15T14:20:02.412Z,9.68
2023-02-15T14:23:12.982Z,9.48
2023-02-15T14:26:28.948Z,9.00
2023-02-15T14:29:50.093Z,9.48
2023-02-15T14:32:45.588Z,9.20
2023-02-15T14:35:32.410Z,9.75
2023-02-15T14:38:52.126Z,10.20
2023-02-15T14:41:54.378Z,11.63
2023-02-15T14:44:55.177Z,11.65
2023-02-15T14:47:57.656Z,12.25
2023-02-15T14:50:46.382Z,9.80
2023-02-15T14:53:38.144Z,13.65
2023-02-15T14:56:26.012Z,13.55
2023-02-15T14:59:17.387Z,13.15
2023-02-15T15:02:09.994Z,12.73
2023-02-15T15:05:21.359Z,13.10
2023-02-15T15:08:07.581Z,12.93
2023-02-15T15:10:53.832Z,13.18
2023-02-15T15:13:52.773Z,12.48
2023-02-15T15:16:38.803Z,12.63
2023-02-15T15:19:51.443Z,12.93
2023-02-15T15:22:38.549Z,12.07
2023-02-15T15:25:45.691Z,12.55
2023-02-15T15:28:34.601Z,11.93
2023-02-15T15:31:52.282Z,13.20
2023-02-15T15:35:02.848Z,12.82
2023-02-15T15:37:48.921Z,13.60
2023-02-15T15:41:01.595Z,15.00
2023-02-15T15:44:21.474Z,14.27
2023-02-15T15:47:19.166Z,14.80
2023-02-15T15:50:15.758Z,14.88
2023-02-15T15:53:04.257Z,16.08
2023-02-15T15:55:53.206Z,16.35
2023-02-15T15:58:46.059Z,15.52
2023-02-15T16:01:41.537Z,16.83
2023-02-15T16:04:33.385Z,16.02
2023-02-15T16:07:19.063Z,17.42
2023-02-15T16:10:20.955Z,16.95
2023-02-15T16:13:08.283Z,16.05
2023-02-15T16:15:56.493Z,16.40
2023-02-15T16:18:45.821Z,16.58
2023-02-15T16:21:36.384Z,16.10
2023-02-15T16:24:44.588Z,15.52
2023-02-15T16:27:36.545Z,17.05
2023-02-15T16:30:31.350Z,16.52
2023-02-15T16:33:18.429Z,15.50
2023-02-15T16:36:06.161Z,15.73
2023-02-15T16:38:58.299Z,15.25
2023-02-15T16:41:47.104Z,15.73
2023-02-15T16:44:34.164Z,16.23
2023-02-15T16:47:27.342Z,16.50
2023-02-15T16:50:23.660Z,15.63
2023-02-15T16:53:19.362Z,15.32
2023-02-15T16:56:06.826Z,16.73
2023-02-15T16:58:55.086Z,16.73
2023-02-15T17:01:45.660Z,16.20
2023-02-15T17:04:32.620Z,16.52
2023-02-15T17:07:20.760Z,15.75
2023-02-15T17:10:27.981Z,15.30
2023-02-15T17:13:18.353Z,15.35
2023-02-15T17:16:04.734Z,14.15
2023-02-15T17:18:53.969Z,14.13
2023-02-15T17:21:52.364Z,14.60
2023-02-15T17:24:41.330Z,14.13
2023-02-15T17:27:32.096Z,14.75
2023-02-15T17:30:29.072Z,13.75
2023-02-15T17:33:30.720Z,15.27
2023-02-15T17:36:22.996Z,14.00
2023-02-15T17:39:23.494Z,16.73
2023-02-15T17:42:09.932Z,17.33
2023-02-15T17:44:56.077Z,16.35
2023-02-15T17:47:42.918Z,16.20
2023-02-15T17:50:29.607Z,16.73
2023-02-15T17:53:20.167Z,16.98
2023-02-15T17:56:10.697Z,16.85
2023-02-15T17:58:56.955Z,16.23
2023-02-15T18:02:07.178Z,16.88
2023-02-15T18:05:11.607Z,16.20
2023-02-15T18:08:16.264Z,16.08
2023-02-15T18:11:21.401Z,17.88
2023-02-15T18:14:11.677Z,15.68
2023-02-15T18:16:57.603Z,16.15
2023-02-15T18:19:45.078Z,15.13
2023-02-15T18:22:32.204Z,15.85
2023-02-15T18:25:21.288Z,15.68
2023-02-15T18:28:07.314Z,15.02
2023-02-15T18:30:53.214Z,15.18
2023-02-15T18:33:47.950Z,14.20
2023-02-15T18:36:43.081Z,14.52
2023-02-15T18:39:46.811Z,15.52
2023-02-15T18:42:36.737Z,15.00
2023-02-15T18:45:32.590Z,14.38
2023-02-15T18:48:19.221Z,14.30
2023-02-15T18:51:09.195Z,14.93
2023-02-15T18:53:55.125Z,14.20
2023-02-15T18:56:41.389Z,14.00
2023-02-15T18:59:30.561Z,13.15
2023-02-15T19:02:19.365Z,14.00
2023-02-15T19:05:06.007Z,14.10
2023-02-15T19:07:52.316Z,13.27
2023-02-15T19:10:38.592Z,13.82
2023-02-15T19:13:25.045Z,14.10
2023-02-15T19:16:20.330Z,14.55
2023-02-15T19:19:07.385Z,13.60
2023-02-15T19:21:53.371Z,13.30
2023-02-15T19:24:42.157Z,13.70
2023-02-15T19:27:33.042Z,13.52
2023-02-15T19:30:32.824Z,12.52
2023-02-15T19:33:20.828Z,13.77
2023-02-15T19:36:22.211Z,13.25
2023-02-15T19:39:35.282Z,13.45
2023-02-15T19:42:25.282Z,12.57
2023-02-15T19:45:26.004Z,12.48
2023-02-15T19:48:17.631Z,12.75
2023-02-15T19:51:04.686Z,11.88
2023-02-15T19:53:51.886Z,11.82
2023-02-15T19:56:37.855Z,12.20
2023-02-15T19:59:27.208Z,12.00
2023-02-15T20:02:15.294Z,11.98
2023-02-15T20:05:01.721Z,11.65
2023-02-15T20:07:50.072Z,12.30
2023-02-15T20:10:36.353Z,11.90
2023-02-15T20:13:23.090Z,12.40
2023-02-15T20:16:09.957Z,11.45
2023-02-15T20:18:55.910Z,12.05
2023-02-15T20:21:44.271Z,11.52
2023-02-15T20:24:30.776Z,11.48
2023-02-15T20:27:19.533Z,11.85
2023-02-15T20:30:14.153Z,11.95
2023-02-15T20:33:00.186Z,11.45
2023-02-15T20:35:46.631Z,12.57
2023-02-15T20:38:33.864Z,11.85
2023-02-15T20:41:37.581Z,11.85
2023-02-15T20:44:34.674Z,10.95
2023-02-15T20:47:21.490Z,11.95
2023-02-15T20:50:08.290Z,12.43
2023-02-15T20:52:57.673Z,13.13
2023-02-15T20:55:44.241Z,13.05
2023-02-15T20:58:31.075Z,12.50
2023-02-15T21:01:19.947Z,12.40
2023-02-15T21:04:08.581Z,12.85
2023-02-15T21:06:55.276Z,12.60
2023-02-15T21:09:41.172Z,12.38
2023-02-15T21:12:28.969Z,12.65
2023-02-15T21:15:50.937Z,11.68
2023-02-15T21:18:39.032Z,11.32
2023-02-15T21:21:24.954Z,12.02
2023-02-15T21:24:34.088Z,12.48
2023-02-15T21:27:20.326Z,12.30
2023-02-15T21:30:22.001Z,12.05
2023-02-15T21:33:08.062Z,12.55
2023-02-15T21:35:57.008Z,12.23
2023-02-15T21:38:43.037Z,12.80
2023-02-15T21:41:47.584Z,12.60
2023-02-15T21:44:54.226Z,12.70
2023-02-15T21:47:52.369Z,13.30
2023-02-15T21:50:57.168Z,13.32
2023-02-15T21:53:47.269Z,11.82
2023-02-15T21:56:33.244Z,12.50
2023-02-15T21:59:19.597Z,13.05
2023-02-15T22:02:25.758Z,12.63
2023-02-15T22:05:48.451Z,12.60
2023-02-15T22:08:39.252Z,12.32
2023-02-15T22:11:25.298Z,13.15
2023-02-15T22:14:42.270Z,11.98
2023-02-15T22:17:30.058Z,12.30
2023-02-15T22:20:21.876Z,11.88
2023-02-15T22:23:10.688Z,12.52
2023-02-15T22:26:02.520Z,12.48
2023-02-15T22:28:48.892Z,12.20
2023-02-15T22:31:35.372Z,12.80
2023-02-15T22:34:32.457Z,12.75
2023-02-15T22:37:19.232Z,13.13
2023-02-15T22:40:07.079Z,13.18
2023-02-15T22:42:54.841Z,13.68
2023-02-15T22:45:41.457Z,13.52
2023-02-15T22:48:28.733Z,13.55
2023-02-15T22:51:20.218Z,13.82
2023-02-15T22:54:06.649Z,13.25
2023-02-15T22:56:53.917Z,12.93
2023-02-15T22:59:41.399Z,13.40
2023-02-15T23:02:28.092Z,13.57
2023-02-15T23:05:21.936Z,13.35
2023-02-15T23:08:10.725Z,13.40
2023-02-15T23:10:57.628Z,14.07
2023-02-15T23:13:43.991Z,14.55
2023-02-15T23:16:30.233Z,14.75
2023-02-15T23:19:16.497Z,15.18
2023-02-15T23:22:02.896Z,14.50
2023-02-15T23:24:53.232Z,15.13
2023-02-15T23:27:57.162Z,15.15
2023-02-15T23:30:43.369Z,14.63
2023-02-15T23:33:34.198Z,14.25
2023-02-15T23:36:23.054Z,14.88
2023-02-15T23:39:45.444Z,13.85
2023-02-15T23:42:33.852Z,14.35
2023-02-15T23:45:23.643Z,13.77
2023-02-15T23:48:38.082Z,14.68
2023-02-15T23:51:30.864Z,14.77
2023-02-15T23:54:18.791Z,13.88
2023-02-15T23:57:04.930Z,15.13
2023-02-15T23:59:51.051Z,14.77
